Corozal, Belize
Current Conditions -  °F | °C
As of 2:41 PM on Wednesday 26 Nov 2014 (Local Time) from MMCM Reporting Station
Scattered Clouds Scattered Clouds  
Wind Chill: 25°   Ceiling: Unl
Heat Index: 26°   Visibility: 7mi
Dew Point: 21°   Wind: 9mph
Humidity: 78%   Direction: 350°N
Pressure: 30.07"   Gusts: NA
Location:  18.4°N, 88.39°W
Report Text: MMCM 262041Z 35008KT 7SM SCT020 SCT100 25/21 A3007 RMK SLP184 5//// 949 8/530 RTS
Loading
Personal Weather Stations






























Interactive Weather Map New forecast layout! Learn more

10-Day Weather Forecast

Advertisements
Track Severe Weather on mobile